sensor_id;sensor_type;location;lat;lon;timestamp;P1;durP1;ratioP1;P2;durP2;ratioP2
64515;SDS011;50891;37.380;-122.076;2022-09-09T00:04:35;14.07;;;6.38;;
64515;SDS011;50891;37.380;-122.076;2022-09-09T00:12:33;10.43;;;5.90;;
64515;SDS011;50891;37.380;-122.076;2022-09-09T00:15:12;11.10;;;6.20;;
64515;SDS011;50891;37.380;-122.076;2022-09-09T00:18:06;10.80;;;5.90;;
64515;SDS011;50891;37.380;-122.076;2022-09-09T00:21:03;13.73;;;6.13;;
64515;SDS011;50891;37.380;-122.076;2022-09-09T00:23:37;12.48;;;6.20;;
64515;SDS011;50891;37.380;-122.076;2022-09-09T00:26:16;12.17;;;6.00;;
64515;SDS011;50891;37.380;-122.076;2022-09-09T00:29:23;10.55;;;5.70;;
64515;SDS011;50891;37.380;-122.076;2022-09-09T00:31:57;12.50;;;6.03;;
64515;SDS011;50891;37.380;-122.076;2022-09-09T00:34:30;13.15;;;5.75;;
64515;SDS011;50891;37.380;-122.076;2022-09-09T00:36:57;12.77;;;5.88;;
64515;SDS011;50891;37.380;-122.076;2022-09-09T00:39:27;13.38;;;5.93;;
64515;SDS011;50891;37.380;-122.076;2022-09-09T00:42:11;11.13;;;5.60;;
64515;SDS011;50891;37.380;-122.076;2022-09-09T00:47:32;13.38;;;5.70;;
64515;SDS011;50891;37.380;-122.076;2022-09-09T00:50:23;13.82;;;5.53;;
64515;SDS011;50891;37.380;-122.076;2022-09-09T00:56:16;13.80;;;5.32;;
64515;SDS011;50891;37.380;-122.076;2022-09-09T00:58:52;10.65;;;5.35;;
64515;SDS011;50891;37.380;-122.076;2022-09-09T01:01:30;12.98;;;6.00;;
64515;SDS011;50891;37.380;-122.076;2022-09-09T01:03:56;11.90;;;5.50;;
64515;SDS011;50891;37.380;-122.076;2022-09-09T01:08:59;12.23;;;5.80;;
64515;SDS011;50891;37.380;-122.076;2022-09-09T01:14:38;12.15;;;5.53;;
64515;SDS011;50891;37.380;-122.076;2022-09-09T01:17:28;12.07;;;5.68;;
64515;SDS011;50891;37.380;-122.076;2022-09-09T01:20:08;12.57;;;5.83;;
64515;SDS011;50891;37.380;-122.076;2022-09-09T01:22:49;12.27;;;5.63;;
64515;SDS011;50891;37.380;-122.076;2022-09-09T01:25:22;12.13;;;5.40;;
64515;SDS011;50891;37.380;-122.076;2022-09-09T01:28:13;13.63;;;6.00;;
64515;SDS011;50891;37.380;-122.076;2022-09-09T01:30:45;11.67;;;5.57;;
64515;SDS011;50891;37.380;-122.076;2022-09-09T01:33:13;12.17;;;5.50;;
64515;SDS011;50891;37.380;-122.076;2022-09-09T01:35:46;11.63;;;5.70;;
64515;SDS011;50891;37.380;-122.076;2022-09-09T01:38:17;11.40;;;5.60;;
64515;SDS011;50891;37.380;-122.076;2022-09-09T01:40:44;12.43;;;5.50;;
64515;SDS011;50891;37.380;-122.076;2022-09-09T01:43:10;11.98;;;5.65;;
64515;SDS011;50891;37.380;-122.076;2022-09-09T01:45:37;13.23;;;5.93;;
64515;SDS011;50891;37.380;-122.076;2022-09-09T01:48:05;13.30;;;5.63;;
64515;SDS011;50891;37.380;-122.076;2022-09-09T01:50:31;12.32;;;5.50;;
64515;SDS011;50891;37.380;-122.076;2022-09-09T01:52:58;12.77;;;6.00;;
64515;SDS011;50891;37.380;-122.076;2022-09-09T01:55:33;13.00;;;5.78;;
64515;SDS011;50891;37.380;-122.076;2022-09-09T02:00:33;11.48;;;5.95;;
64515;SDS011;50891;37.380;-122.076;2022-09-09T02:06:14;14.45;;;6.93;;
64515;SDS011;50891;37.380;-122.076;2022-09-09T02:11:38;13.90;;;6.70;;
64515;SDS011;50891;37.380;-122.076;2022-09-09T02:14:06;13.77;;;6.60;;
64515;SDS011;50891;37.380;-122.076;2022-09-09T02:16:39;14.00;;;6.57;;
64515;SDS011;50891;37.380;-122.076;2022-09-09T02:21:43;13.93;;;6.28;;
64515;SDS011;50891;37.380;-122.076;2022-09-09T02:24:11;12.05;;;5.90;;
64515;SDS011;50891;37.380;-122.076;2022-09-09T02:26:41;13.13;;;6.10;;
64515;SDS011;50891;37.380;-122.076;2022-09-09T02:29:20;15.23;;;6.20;;
64515;SDS011;50891;37.380;-122.076;2022-09-09T02:31:52;14.38;;;6.20;;
64515;SDS011;50891;37.380;-122.076;2022-09-09T02:34:21;14.63;;;6.30;;
64515;SDS011;50891;37.380;-122.076;2022-09-09T02:36:53;13.57;;;5.93;;
64515;SDS011;50891;37.380;-122.076;2022-09-09T02:39:21;13.70;;;6.30;;
64515;SDS011;50891;37.380;-122.076;2022-09-09T02:41:48;14.40;;;6.50;;
64515;SDS011;50891;37.380;-122.076;2022-09-09T02:44:15;14.48;;;6.30;;
64515;SDS011;50891;37.380;-122.076;2022-09-09T02:49:09;14.38;;;6.03;;
64515;SDS011;50891;37.380;-122.076;2022-09-09T02:56:58;14.95;;;6.78;;
64515;SDS011;50891;37.380;-122.076;2022-09-09T02:59:27;17.98;;;7.28;;
64515;SDS011;50891;37.380;-122.076;2022-09-09T03:01:55;16.63;;;6.97;;
64515;SDS011;50891;37.380;-122.076;2022-09-09T03:04:21;18.58;;;7.63;;
64515;SDS011;50891;37.380;-122.076;2022-09-09T03:06:49;17.97;;;7.30;;
64515;SDS011;50891;37.380;-122.076;2022-09-09T03:09:15;17.48;;;7.07;;
64515;SDS011;50891;37.380;-122.076;2022-09-09T03:11:42;18.02;;;7.03;;
64515;SDS011;50891;37.380;-122.076;2022-09-09T03:14:08;21.63;;;7.60;;
64515;SDS011;50891;37.380;-122.076;2022-09-09T03:16:36;19.80;;;7.40;;
64515;SDS011;50891;37.380;-122.076;2022-09-09T03:19:03;18.70;;;7.43;;
64515;SDS011;50891;37.380;-122.076;2022-09-09T03:21:29;20.65;;;7.57;;
64515;SDS011;50891;37.380;-122.076;2022-09-09T03:23:55;18.83;;;7.68;;
64515;SDS011;50891;37.380;-122.076;2022-09-09T03:26:22;20.00;;;7.40;;
64515;SDS011;50891;37.380;-122.076;2022-09-09T03:28:48;19.10;;;7.60;;
64515;SDS011;50891;37.380;-122.076;2022-09-09T03:31:16;19.47;;;7.40;;
64515;SDS011;50891;37.380;-122.076;2022-09-09T03:33:44;18.70;;;7.47;;
64515;SDS011;50891;37.380;-122.076;2022-09-09T03:36:10;20.23;;;7.65;;
64515;SDS011;50891;37.380;-122.076;2022-09-09T03:38:37;18.15;;;7.70;;
64515;SDS011;50891;37.380;-122.076;2022-09-09T03:41:03;18.27;;;7.63;;
64515;SDS011;50891;37.380;-122.076;2022-09-09T03:43:31;17.77;;;7.70;;
64515;SDS011;50891;37.380;-122.076;2022-09-09T03:45:57;17.83;;;7.68;;
64515;SDS011;50891;37.380;-122.076;2022-09-09T03:48:24;18.20;;;7.80;;
64515;SDS011;50891;37.380;-122.076;2022-09-09T03:50:53;21.38;;;8.07;;
64515;SDS011;50891;37.380;-122.076;2022-09-09T03:53:25;17.45;;;7.35;;
64515;SDS011;50891;37.380;-122.076;2022-09-09T03:55:53;18.02;;;7.70;;
64515;SDS011;50891;37.380;-122.076;2022-09-09T03:58:21;18.35;;;7.95;;
64515;SDS011;50891;37.380;-122.076;2022-09-09T04:01:25;20.95;;;7.40;;
64515;SDS011;50891;37.380;-122.076;2022-09-09T04:03:44;20.40;;;8.02;;
64515;SDS011;50891;37.380;-122.076;2022-09-09T04:06:11;20.53;;;8.10;;
64515;SDS011;50891;37.380;-122.076;2022-09-09T04:08:39;17.40;;;7.45;;
64515;SDS011;50891;37.380;-122.076;2022-09-09T04:11:06;18.13;;;7.30;;
64515;SDS011;50891;37.380;-122.076;2022-09-09T04:13:34;17.97;;;7.37;;
64515;SDS011;50891;37.380;-122.076;2022-09-09T04:16:04;19.48;;;7.97;;
64515;SDS011;50891;37.380;-122.076;2022-09-09T04:18:31;17.15;;;7.18;;
64515;SDS011;50891;37.380;-122.076;2022-09-09T04:20:57;20.63;;;8.15;;
64515;SDS011;50891;37.380;-122.076;2022-09-09T04:23:24;19.80;;;8.05;;
64515;SDS011;50891;37.380;-122.076;2022-09-09T06:42:00;26.80;;;9.07;;
64515;SDS011;50891;37.380;-122.076;2022-09-09T06:44:27;23.52;;;9.20;;
64515;SDS011;50891;37.380;-122.076;2022-09-09T06:46:55;25.48;;;9.13;;
64515;SDS011;50891;37.380;-122.076;2022-09-09T06:49:21;24.95;;;9.30;;
64515;SDS011;50891;37.380;-122.076;2022-09-09T06:51:47;25.42;;;9.57;;
64515;SDS011;50891;37.380;-122.076;2022-09-09T06:54:14;24.90;;;9.20;;
64515;SDS011;50891;37.380;-122.076;2022-09-09T06:56:41;25.83;;;9.40;;
64515;SDS011;50891;37.380;-122.076;2022-09-09T06:59:08;24.48;;;9.15;;
64515;SDS011;50891;37.380;-122.076;2022-09-09T07:01:37;26.13;;;9.35;;
64515;SDS011;50891;37.380;-122.076;2022-09-09T07:04:07;28.85;;;9.48;;
64515;SDS011;50891;37.380;-122.076;2022-09-09T07:06:35;24.60;;;9.30;;
64515;SDS011;50891;37.380;-122.076;2022-09-09T07:09:09;24.75;;;9.43;;
64515;SDS011;50891;37.380;-122.076;2022-09-09T07:11:41;26.73;;;9.68;;
64515;SDS011;50891;37.380;-122.076;2022-09-09T07:14:11;26.45;;;9.57;;
64515;SDS011;50891;37.380;-122.076;2022-09-09T07:16:41;27.35;;;9.50;;
64515;SDS011;50891;37.380;-122.076;2022-09-09T07:19:08;25.85;;;9.38;;
64515;SDS011;50891;37.380;-122.076;2022-09-09T07:21:35;25.10;;;9.10;;
64515;SDS011;50891;37.380;-122.076;2022-09-09T07:24:02;23.43;;;9.80;;
64515;SDS011;50891;37.380;-122.076;2022-09-09T07:26:29;26.55;;;9.57;;
64515;SDS011;50891;37.380;-122.076;2022-09-09T07:28:56;23.13;;;9.05;;
64515;SDS011;50891;37.380;-122.076;2022-09-09T07:31:24;26.27;;;9.32;;
64515;SDS011;50891;37.380;-122.076;2022-09-09T07:33:52;25.13;;;8.88;;
64515;SDS011;50891;37.380;-122.076;2022-09-09T07:38:54;27.08;;;9.45;;
64515;SDS011;50891;37.380;-122.076;2022-09-09T07:41:23;26.27;;;9.25;;
64515;SDS011;50891;37.380;-122.076;2022-09-09T07:43:52;24.40;;;9.93;;
64515;SDS011;50891;37.380;-122.076;2022-09-09T07:46:22;24.52;;;9.30;;
64515;SDS011;50891;37.380;-122.076;2022-09-09T07:48:51;24.13;;;9.35;;
64515;SDS011;50891;37.380;-122.076;2022-09-09T07:51:21;21.92;;;9.25;;
64515;SDS011;50891;37.380;-122.076;2022-09-09T07:53:57;23.38;;;8.95;;
64515;SDS011;50891;37.380;-122.076;2022-09-09T07:56:27;25.70;;;9.25;;
64515;SDS011;50891;37.380;-122.076;2022-09-09T07:58:55;24.73;;;9.30;;
64515;SDS011;50891;37.380;-122.076;2022-09-09T08:01:25;24.20;;;8.43;;
64515;SDS011;50891;37.380;-122.076;2022-09-09T08:03:57;21.98;;;8.65;;
64515;SDS011;50891;37.380;-122.076;2022-09-09T08:06:30;23.88;;;8.95;;
64515;SDS011;50891;37.380;-122.076;2022-09-09T08:09:02;22.58;;;8.40;;
64515;SDS011;50891;37.380;-122.076;2022-09-09T08:11:29;24.40;;;9.23;;
64515;SDS011;50891;37.380;-122.076;2022-09-09T08:13:56;20.35;;;8.60;;
64515;SDS011;50891;37.380;-122.076;2022-09-09T08:16:23;22.37;;;8.67;;
64515;SDS011;50891;37.380;-122.076;2022-09-09T08:18:55;25.65;;;8.70;;
64515;SDS011;50891;37.380;-122.076;2022-09-09T08:21:23;23.20;;;8.60;;
64515;SDS011;50891;37.380;-122.076;2022-09-09T08:23:52;24.60;;;9.07;;
64515;SDS011;50891;37.380;-122.076;2022-09-09T08:26:23;22.67;;;8.55;;
64515;SDS011;50891;37.380;-122.076;2022-09-09T08:28:53;23.03;;;8.73;;
64515;SDS011;50891;37.380;-122.076;2022-09-09T08:31:23;25.48;;;9.15;;
64515;SDS011;50891;37.380;-122.076;2022-09-09T08:33:53;23.63;;;8.55;;
64515;SDS011;50891;37.380;-122.076;2022-09-09T08:36:21;20.77;;;8.17;;
64515;SDS011;50891;37.380;-122.076;2022-09-09T08:38:49;21.23;;;8.25;;
64515;SDS011;50891;37.380;-122.076;2022-09-09T08:41:36;23.42;;;8.52;;
64515;SDS011;50891;37.380;-122.076;2022-09-09T08:47:06;23.37;;;8.73;;
64515;SDS011;50891;37.380;-122.076;2022-09-09T08:55:41;24.17;;;8.93;;
64515;SDS011;50891;37.380;-122.076;2022-09-09T08:58:15;24.00;;;9.02;;
64515;SDS011;50891;37.380;-122.076;2022-09-09T09:03:30;22.48;;;8.77;;
64515;SDS011;50891;37.380;-122.076;2022-09-09T09:06:26;26.05;;;8.82;;
64515;SDS011;50891;37.380;-122.076;2022-09-09T09:12:20;25.85;;;8.82;;
64515;SDS011;50891;37.380;-122.076;2022-09-09T09:14:49;25.57;;;9.60;;
64515;SDS011;50891;37.380;-122.076;2022-09-09T09:17:19;22.67;;;8.73;;
64515;SDS011;50891;37.380;-122.076;2022-09-09T09:19:49;24.80;;;9.13;;
64515;SDS011;50891;37.380;-122.076;2022-09-09T09:25:22;26.80;;;9.55;;
64515;SDS011;50891;37.380;-122.076;2022-09-09T09:28:07;28.75;;;9.57;;
64515;SDS011;50891;37.380;-122.076;2022-09-09T09:30:48;24.75;;;9.35;;
64515;SDS011;50891;37.380;-122.076;2022-09-09T09:33:30;26.40;;;9.35;;
64515;SDS011;50891;37.380;-122.076;2022-09-09T09:36:12;28.17;;;9.67;;
64515;SDS011;50891;37.380;-122.076;2022-09-09T09:38:51;25.55;;;8.98;;
64515;SDS011;50891;37.380;-122.076;2022-09-09T09:44:28;28.67;;;9.43;;
64515;SDS011;50891;37.380;-122.076;2022-09-09T09:49:34;26.92;;;9.48;;
64515;SDS011;50891;37.380;-122.076;2022-09-09T09:52:01;29.88;;;9.27;;
64515;SDS011;50891;37.380;-122.076;2022-09-09T09:54:33;25.45;;;9.48;;
64515;SDS011;50891;37.380;-122.076;2022-09-09T09:57:13;31.25;;;9.70;;
64515;SDS011;50891;37.380;-122.076;2022-09-09T09:59:41;27.02;;;9.80;;
64515;SDS011;50891;37.380;-122.076;2022-09-09T10:02:22;27.30;;;9.20;;
64515;SDS011;50891;37.380;-122.076;2022-09-09T10:05:03;24.50;;;9.13;;
64515;SDS011;50891;37.380;-122.076;2022-09-09T10:07:37;26.02;;;9.38;;
64515;SDS011;50891;37.380;-122.076;2022-09-09T10:10:04;27.08;;;9.48;;
64515;SDS011;50891;37.380;-122.076;2022-09-09T10:15:33;29.90;;;9.77;;
64515;SDS011;50891;37.380;-122.076;2022-09-09T10:21:17;26.77;;;9.32;;
64515;SDS011;50891;37.380;-122.076;2022-09-09T10:30:15;26.38;;;9.23;;
64515;SDS011;50891;37.380;-122.076;2022-09-09T10:35:13;27.23;;;9.02;;
64515;SDS011;50891;37.380;-122.076;2022-09-09T10:48:59;27.63;;;9.33;;
64515;SDS011;50891;37.380;-122.076;2022-09-09T11:00:04;26.98;;;9.43;;
64515;SDS011;50891;37.380;-122.076;2022-09-09T11:02:34;26.80;;;9.73;;
64515;SDS011;50891;37.380;-122.076;2022-09-09T11:05:10;30.85;;;10.00;;
64515;SDS011;50891;37.380;-122.076;2022-09-09T11:08:06;27.23;;;9.43;;
64515;SDS011;50891;37.380;-122.076;2022-09-09T11:10:58;27.45;;;9.68;;
64515;SDS011;50891;37.380;-122.076;2022-09-09T11:19:16;29.10;;;9.82;;
64515;SDS011;50891;37.380;-122.076;2022-09-09T11:21:47;25.53;;;9.20;;
64515;SDS011;50891;37.380;-122.076;2022-09-09T11:24:23;27.83;;;9.07;;
64515;SDS011;50891;37.380;-122.076;2022-09-09T11:27:00;27.15;;;9.70;;
64515;SDS011;50891;37.380;-122.076;2022-09-09T11:40:34;28.73;;;9.75;;
64515;SDS011;50891;37.380;-122.076;2022-09-09T11:43:11;25.50;;;9.63;;
64515;SDS011;50891;37.380;-122.076;2022-09-09T11:45:41;28.98;;;9.90;;
64515;SDS011;50891;37.380;-122.076;2022-09-09T11:51:07;31.23;;;9.85;;
64515;SDS011;50891;37.380;-122.076;2022-09-09T11:53:47;27.20;;;9.45;;
64515;SDS011;50891;37.380;-122.076;2022-09-09T11:57:23;28.27;;;9.60;;
64515;SDS011;50891;37.380;-122.076;2022-09-09T11:59:49;30.83;;;9.60;;
64515;SDS011;50891;37.380;-122.076;2022-09-09T12:02:08;30.67;;;9.98;;
64515;SDS011;50891;37.380;-122.076;2022-09-09T12:07:35;28.00;;;9.70;;
64515;SDS011;50891;37.380;-122.076;2022-09-09T12:13:08;30.38;;;10.02;;
64515;SDS011;50891;37.380;-122.076;2022-09-09T12:15:34;26.88;;;10.05;;
64515;SDS011;50891;37.380;-122.076;2022-09-09T12:18:14;30.23;;;10.10;;
64515;SDS011;50891;37.380;-122.076;2022-09-09T12:24:01;28.77;;;9.60;;
64515;SDS011;50891;37.380;-122.076;2022-09-09T12:32:29;26.75;;;9.40;;
64515;SDS011;50891;37.380;-122.076;2022-09-09T12:35:09;26.58;;;9.77;;
64515;SDS011;50891;37.380;-122.076;2022-09-09T12:37:51;24.33;;;9.05;;
64515;SDS011;50891;37.380;-122.076;2022-09-09T12:40:23;25.60;;;9.73;;
64515;SDS011;50891;37.380;-122.076;2022-09-09T12:42:51;27.63;;;10.00;;
64515;SDS011;50891;37.380;-122.076;2022-09-09T12:45:24;22.88;;;9.07;;
64515;SDS011;50891;37.380;-122.076;2022-09-09T12:47:59;29.08;;;9.52;;
64515;SDS011;50891;37.380;-122.076;2022-09-09T12:50:33;26.65;;;9.57;;
64515;SDS011;50891;37.380;-122.076;2022-09-09T12:53:09;26.20;;;9.20;;
64515;SDS011;50891;37.380;-122.076;2022-09-09T12:55:48;29.17;;;9.73;;
64515;SDS011;50891;37.380;-122.076;2022-09-09T12:58:27;25.95;;;9.70;;
64515;SDS011;50891;37.380;-122.076;2022-09-09T13:01:00;25.85;;;9.88;;
64515;SDS011;50891;37.380;-122.076;2022-09-09T13:03:31;27.63;;;9.90;;
64515;SDS011;50891;37.380;-122.076;2022-09-09T13:06:33;29.80;;;9.93;;
64515;SDS011;50891;37.380;-122.076;2022-09-09T13:08:57;29.83;;;9.93;;
64515;SDS011;50891;37.380;-122.076;2022-09-09T13:11:26;29.52;;;9.68;;
64515;SDS011;50891;37.380;-122.076;2022-09-09T13:14:01;28.17;;;9.85;;
64515;SDS011;50891;37.380;-122.076;2022-09-09T13:16:29;26.05;;;9.77;;
64515;SDS011;50891;37.380;-122.076;2022-09-09T13:19:00;26.33;;;9.30;;
64515;SDS011;50891;37.380;-122.076;2022-09-09T13:21:36;29.58;;;10.35;;
64515;SDS011;50891;37.380;-122.076;2022-09-09T13:24:04;27.40;;;9.45;;
64515;SDS011;50891;37.380;-122.076;2022-09-09T13:26:33;30.08;;;9.63;;
64515;SDS011;50891;37.380;-122.076;2022-09-09T13:29:16;30.30;;;10.32;;
64515;SDS011;50891;37.380;-122.076;2022-09-09T13:31:46;28.05;;;10.02;;
64515;SDS011;50891;37.380;-122.076;2022-09-09T13:34:13;28.00;;;9.95;;
64515;SDS011;50891;37.380;-122.076;2022-09-09T13:37:03;29.80;;;10.05;;
64515;SDS011;50891;37.380;-122.076;2022-09-09T13:39:32;28.23;;;9.15;;
64515;SDS011;50891;37.380;-122.076;2022-09-09T13:42:02;28.67;;;9.57;;
64515;SDS011;50891;37.380;-122.076;2022-09-09T13:44:30;26.92;;;9.25;;
64515;SDS011;50891;37.380;-122.076;2022-09-09T13:49:42;24.50;;;9.38;;
64515;SDS011;50891;37.380;-122.076;2022-09-09T13:52:09;28.80;;;9.32;;
64515;SDS011;50891;37.380;-122.076;2022-09-09T13:54:39;25.13;;;9.25;;
64515;SDS011;50891;37.380;-122.076;2022-09-09T13:57:14;27.70;;;9.48;;
64515;SDS011;50891;37.380;-122.076;2022-09-09T13:59:50;26.45;;;9.13;;
64515;SDS011;50891;37.380;-122.076;2022-09-09T14:02:18;25.23;;;9.07;;
64515;SDS011;50891;37.380;-122.076;2022-09-09T14:04:46;24.63;;;9.35;;
64515;SDS011;50891;37.380;-122.076;2022-09-09T14:07:16;28.17;;;9.43;;
64515;SDS011;50891;37.380;-122.076;2022-09-09T14:09:44;25.87;;;9.20;;
64515;SDS011;50891;37.380;-122.076;2022-09-09T14:12:15;25.23;;;9.30;;
64515;SDS011;50891;37.380;-122.076;2022-09-09T14:14:42;26.63;;;9.57;;
64515;SDS011;50891;37.380;-122.076;2022-09-09T14:17:09;25.80;;;9.25;;
64515;SDS011;50891;37.380;-122.076;2022-09-09T14:19:35;26.10;;;9.40;;
64515;SDS011;50891;37.380;-122.076;2022-09-09T14:22:03;24.17;;;8.75;;
64515;SDS011;50891;37.380;-122.076;2022-09-09T14:24:29;24.15;;;8.90;;
64515;SDS011;50891;37.380;-122.076;2022-09-09T14:26:56;23.17;;;8.97;;
64515;SDS011;50891;37.380;-122.076;2022-09-09T14:29:22;26.05;;;9.65;;
64515;SDS011;50891;37.380;-122.076;2022-09-09T14:31:51;24.20;;;8.90;;
64515;SDS011;50891;37.380;-122.076;2022-09-09T14:34:18;26.83;;;9.10;;
64515;SDS011;50891;37.380;-122.076;2022-09-09T14:36:44;28.25;;;9.10;;
64515;SDS011;50891;37.380;-122.076;2022-09-09T14:39:10;25.52;;;8.95;;
64515;SDS011;50891;37.380;-122.076;2022-09-09T14:41:37;26.52;;;9.57;;
64515;SDS011;50891;37.380;-122.076;2022-09-09T14:44:03;25.97;;;8.90;;
64515;SDS011;50891;37.380;-122.076;2022-09-09T14:46:29;25.50;;;8.85;;
64515;SDS011;50891;37.380;-122.076;2022-09-09T14:48:56;22.60;;;8.63;;
64515;SDS011;50891;37.380;-122.076;2022-09-09T14:51:23;26.98;;;9.05;;
64515;SDS011;50891;37.380;-122.076;2022-09-09T14:53:53;28.73;;;9.35;;
64515;SDS011;50891;37.380;-122.076;2022-09-09T14:56:23;27.40;;;9.93;;
64515;SDS011;50891;37.380;-122.076;2022-09-09T14:58:52;28.45;;;8.90;;
64515;SDS011;50891;37.380;-122.076;2022-09-09T15:01:20;24.73;;;9.30;;
64515;SDS011;50891;37.380;-122.076;2022-09-09T15:03:54;28.00;;;9.52;;
64515;SDS011;50891;37.380;-122.076;2022-09-09T15:06:29;26.63;;;9.32;;
64515;SDS011;50891;37.380;-122.076;2022-09-09T15:08:59;31.73;;;9.68;;
64515;SDS011;50891;37.380;-122.076;2022-09-09T15:11:26;28.60;;;9.65;;
64515;SDS011;50891;37.380;-122.076;2022-09-09T15:13:55;29.88;;;9.50;;
64515;SDS011;50891;37.380;-122.076;2022-09-09T15:16:24;30.63;;;10.05;;
64515;SDS011;50891;37.380;-122.076;2022-09-09T15:18:53;31.03;;;9.93;;
64515;SDS011;50891;37.380;-122.076;2022-09-09T15:21:22;30.30;;;10.15;;
64515;SDS011;50891;37.380;-122.076;2022-09-09T15:23:50;29.27;;;9.93;;
64515;SDS011;50891;37.380;-122.076;2022-09-09T15:26:17;29.00;;;10.18;;
64515;SDS011;50891;37.380;-122.076;2022-09-09T15:28:44;30.98;;;10.02;;
64515;SDS011;50891;37.380;-122.076;2022-09-09T15:31:16;31.27;;;10.50;;
64515;SDS011;50891;37.380;-122.076;2022-09-09T15:36:16;32.50;;;10.98;;
64515;SDS011;50891;37.380;-122.076;2022-09-09T15:38:45;33.75;;;10.35;;
64515;SDS011;50891;37.380;-122.076;2022-09-09T15:41:12;36.63;;;10.38;;
64515;SDS011;50891;37.380;-122.076;2022-09-09T15:43:42;33.15;;;10.43;;
64515;SDS011;50891;37.380;-122.076;2022-09-09T15:49:03;34.83;;;10.38;;
64515;SDS011;50891;37.380;-122.076;2022-09-09T15:51:30;37.20;;;10.73;;
64515;SDS011;50891;37.380;-122.076;2022-09-09T15:53:57;34.90;;;10.80;;
64515;SDS011;50891;37.380;-122.076;2022-09-09T15:56:24;34.05;;;10.65;;
64515;SDS011;50891;37.380;-122.076;2022-09-09T15:59:01;30.33;;;10.07;;
64515;SDS011;50891;37.380;-122.076;2022-09-09T16:01:28;32.10;;;10.38;;
64515;SDS011;50891;37.380;-122.076;2022-09-09T16:03:56;33.37;;;10.13;;
64515;SDS011;50891;37.380;-122.076;2022-09-09T16:06:24;34.05;;;10.70;;
64515;SDS011;50891;37.380;-122.076;2022-09-09T16:08:53;36.97;;;10.52;;
64515;SDS011;50891;37.380;-122.076;2022-09-09T16:13:54;35.85;;;10.88;;
64515;SDS011;50891;37.380;-122.076;2022-09-09T16:16:22;34.42;;;10.93;;
64515;SDS011;50891;37.380;-122.076;2022-09-09T16:18:54;32.55;;;10.25;;
64515;SDS011;50891;37.380;-122.076;2022-09-09T16:21:26;34.17;;;9.95;;
64515;SDS011;50891;37.380;-122.076;2022-09-09T16:23:54;35.22;;;10.95;;
64515;SDS011;50891;37.380;-122.076;2022-09-09T16:26:22;33.15;;;10.70;;
64515;SDS011;50891;37.380;-122.076;2022-09-09T16:28:49;35.75;;;11.15;;
64515;SDS011;50891;37.380;-122.076;2022-09-09T16:31:17;33.65;;;10.70;;
64515;SDS011;50891;37.380;-122.076;2022-09-09T16:33:46;33.10;;;10.48;;
64515;SDS011;50891;37.380;-122.076;2022-09-09T16:36:14;33.15;;;10.85;;
64515;SDS011;50891;37.380;-122.076;2022-09-09T16:38:42;37.92;;;10.65;;
64515;SDS011;50891;37.380;-122.076;2022-09-09T16:41:09;37.50;;;11.77;;
64515;SDS011;50891;37.380;-122.076;2022-09-09T16:43:37;33.05;;;10.40;;
64515;SDS011;50891;37.380;-122.076;2022-09-09T16:46:11;41.17;;;11.25;;
64515;SDS011;50891;37.380;-122.076;2022-09-09T16:48:42;37.08;;;11.75;;
64515;SDS011;50891;37.380;-122.076;2022-09-09T16:51:14;35.72;;;11.02;;
64515;SDS011;50891;37.380;-122.076;2022-09-09T16:53:42;38.70;;;10.90;;
64515;SDS011;50891;37.380;-122.076;2022-09-09T16:56:09;37.07;;;10.70;;
64515;SDS011;50891;37.380;-122.076;2022-09-09T16:58:40;38.35;;;11.13;;
64515;SDS011;50891;37.380;-122.076;2022-09-09T17:01:08;41.28;;;11.48;;
64515;SDS011;50891;37.380;-122.076;2022-09-09T17:03:39;43.20;;;11.68;;
64515;SDS011;50891;37.380;-122.076;2022-09-09T17:06:09;41.75;;;10.88;;
64515;SDS011;50891;37.380;-122.076;2022-09-09T17:08:37;45.70;;;11.70;;
64515;SDS011;50891;37.380;-122.076;2022-09-09T17:11:11;33.28;;;10.23;;
64515;SDS011;50891;37.380;-122.076;2022-09-09T17:13:45;42.17;;;11.50;;
64515;SDS011;50891;37.380;-122.076;2022-09-09T17:16:12;46.47;;;12.05;;
64515;SDS011;50891;37.380;-122.076;2022-09-09T17:18:41;38.38;;;11.52;;
64515;SDS011;50891;37.380;-122.076;2022-09-09T17:21:08;40.27;;;11.30;;
64515;SDS011;50891;37.380;-122.076;2022-09-09T17:23:40;35.65;;;10.77;;
64515;SDS011;50891;37.380;-122.076;2022-09-09T17:26:08;39.97;;;11.98;;
64515;SDS011;50891;37.380;-122.076;2022-09-09T17:28:36;37.38;;;11.50;;
64515;SDS011;50891;37.380;-122.076;2022-09-09T17:31:04;40.53;;;11.45;;
64515;SDS011;50891;37.380;-122.076;2022-09-09T17:33:36;36.60;;;11.32;;
64515;SDS011;50891;37.380;-122.076;2022-09-09T17:36:11;36.80;;;11.13;;
64515;SDS011;50891;37.380;-122.076;2022-09-09T17:38:40;39.13;;;11.40;;
64515;SDS011;50891;37.380;-122.076;2022-09-09T17:41:12;36.93;;;11.13;;
64515;SDS011;50891;37.380;-122.076;2022-09-09T17:43:41;68.50;;;32.72;;
64515;SDS011;50891;37.380;-122.076;2022-09-09T17:46:08;55.45;;;21.77;;
64515;SDS011;50891;37.380;-122.076;2022-09-09T17:48:39;55.42;;;17.45;;
64515;SDS011;50891;37.380;-122.076;2022-09-09T17:51:07;50.78;;;13.90;;
64515;SDS011;50891;37.380;-122.076;2022-09-09T17:53:40;45.95;;;12.52;;
64515;SDS011;50891;37.380;-122.076;2022-09-09T17:56:08;40.40;;;11.90;;
64515;SDS011;50891;37.380;-122.076;2022-09-09T17:58:36;37.28;;;11.50;;
64515;SDS011;50891;37.380;-122.076;2022-09-09T18:01:04;41.13;;;11.95;;
64515;SDS011;50891;37.380;-122.076;2022-09-09T18:03:35;40.97;;;11.63;;
64515;SDS011;50891;37.380;-122.076;2022-09-09T18:06:03;37.97;;;11.35;;
64515;SDS011;50891;37.380;-122.076;2022-09-09T18:08:30;33.72;;;10.90;;
64515;SDS011;50891;37.380;-122.076;2022-09-09T18:10:58;37.30;;;11.05;;
64515;SDS011;50891;37.380;-122.076;2022-09-09T18:13:25;40.70;;;11.40;;
64515;SDS011;50891;37.380;-122.076;2022-09-09T18:15:52;38.83;;;11.13;;
64515;SDS011;50891;37.380;-122.076;2022-09-09T18:18:19;36.55;;;11.27;;
64515;SDS011;50891;37.380;-122.076;2022-09-09T18:20:46;38.53;;;11.63;;
64515;SDS011;50891;37.380;-122.076;2022-09-09T18:23:24;40.97;;;11.98;;
64515;SDS011;50891;37.380;-122.076;2022-09-09T18:25:50;39.75;;;11.27;;
64515;SDS011;50891;37.380;-122.076;2022-09-09T18:28:16;44.75;;;12.02;;
64515;SDS011;50891;37.380;-122.076;2022-09-09T18:30:45;44.53;;;11.43;;
64515;SDS011;50891;37.380;-122.076;2022-09-09T18:33:11;41.53;;;11.55;;
64515;SDS011;50891;37.380;-122.076;2022-09-09T18:35:37;44.63;;;12.35;;
64515;SDS011;50891;37.380;-122.076;2022-09-09T18:38:03;36.90;;;11.80;;
64515;SDS011;50891;37.380;-122.076;2022-09-09T18:40:30;38.03;;;11.07;;
64515;SDS011;50891;37.380;-122.076;2022-09-09T18:42:57;42.33;;;11.88;;
64515;SDS011;50891;37.380;-122.076;2022-09-09T18:45:24;43.70;;;11.43;;
64515;SDS011;50891;37.380;-122.076;2022-09-09T18:47:51;40.95;;;11.60;;
64515;SDS011;50891;37.380;-122.076;2022-09-09T18:50:17;41.17;;;11.75;;
64515;SDS011;50891;37.380;-122.076;2022-09-09T18:52:43;39.28;;;11.30;;
64515;SDS011;50891;37.380;-122.076;2022-09-09T18:55:10;41.40;;;11.60;;
64515;SDS011;50891;37.380;-122.076;2022-09-09T18:57:36;41.65;;;11.75;;